茨城空港(百里飛行場)の過去48時間の天気

茨城空港(百里飛行場) (Hyakuri)

現在時刻: 7/29 12:55 JST (7/29 03:55 UTC) 以下の時間は現地時間です。

過去48時間のMETAR気象情報
時間 風向 風速(m/s) 視程 気温(℃) 湿度(%) 気圧(hPa) 天気現象
29 12:00 7 10km以上 31 66 1002
29 11:00 南南西 5 10km以上 30 70 1002
29 10:36 6 10km以上 30 79 1002
29 10:00 南西 4 10km以上 27 89 1002 弱いしゅう雨
29 09:00 南南西 3 10km以上 26 94 1003 弱いしゅう雨
29 08:39 南南西 3 10km以上 26 89 1003 弱いしゅう雨
29 08:25 南西 5 2000m 27 89 1003 強いしゅう雨 もや
29 08:05 南南西 4 10km以上 28 79 1003 弱いしゅう雨
29 08:00 4 10km以上 27 89 1003
29 07:17 南南西 4 8000m 27 89 1003
29 07:00 南南西 3 6000m 26 89 1003
29 06:29 南南西 2 5000m 26 94 1003 もや
29 06:00 不定 1 4000m 25 94 1002 もや
29 05:45 不定 1 4000m 24 94 1002 もや
29 05:18 北北西 1 3000m 24 94 1002 もや
29 05:00 1 3000m 24 94 1002 もや
29 04:12 北西 1 4000m 24 94 1002 もや
29 04:00 不定 1 5000m 24 94 1002 もや
29 03:00 北北東 2 5000m 23 94 1001 もや
29 02:00 北北東 2 5000m 23 94 1001 弱いしゅう雨 もや
29 01:45 北北東 2 7000m 23 94 1001 弱いしゅう雨
29 01:00 2 8000m 23 94 1001
29 00:00 不定 1 8000m 23 89 1002
28 23:00 2 10km以上 23 94 1002
28 22:00 1 10km以上 23 94 1002 弱いしゅう雨
28 21:00 2 10km以上 24 89 1002 弱いしゅう雨
28 20:29 北東 3 10km以上 24 89 1002 弱いしゅう雨
28 20:20 北北東 3 10km以上 24 89 1002
28 20:00 北東 3 10km以上 24 89 1001 弱いしゅう雨
28 19:10 北北東 5 10km以上 24 83 1001 弱いしゅう雨
28 19:00 4 10km以上 24 83 1001
28 18:00 南南東 5 10km以上 27 79 1000
28 17:42 5 10km以上 28 74 1000
28 17:14 南南東 6 10km以上 28 74 999 弱いしゅう雨
28 17:00 7 10km以上 28 74 999
28 16:00 6 10km以上 30 70 998
28 15:46 6 10km以上 30 66 998
28 15:00 6 10km以上 30 66 999
28 14:00 南南東 6 10km以上 31 66 999
28 13:00 5 10km以上 31 70 999
28 12:47 5 10km以上 31 66 999
28 12:05 4 10km以上 30 70 999 弱いしゅう雨
28 12:00 3 10km以上 31 66 999
28 11:00 3 10km以上 30 70 1000
28 10:00 3 10km以上 29 70 1000
28 09:39 4 10km以上 29 74 1000
28 09:00 南西 3 10km以上 29 74 1000
28 08:00 南西 3 10km以上 27 79 999
28 07:00 西 2 10km以上 25 83 999
28 06:00 不定 1 10km以上 23 89 999
28 05:00 不定 1 10km以上 22 94 999
28 04:00 2 10km以上 23 89 999
28 03:00 南南西 2 10km以上 22 94 998
28 02:00 南南西 3 10km以上 23 89 998
28 01:00 南西 2 10km以上 23 83 998
28 00:32 西南西 2 10km以上 22 94 998
28 00:00 西北西 2 10km以上 23 83 998
27 23:00 西北西 2 10km以上 24 78 997
27 22:00 西 2 10km以上 24 83 997
27 21:00 北西 3 10km以上 24 89 997 弱いしゅう雨
27 20:19 西北西 2 10km以上 24 89 996 弱いしゅう雨
27 20:00 北北西 2 10km以上 25 78 996
27 19:47 北北西 2 10km以上 25 78 996
27 19:00 西北西 2 10km以上 24 89 996 弱いしゅう雨
27 18:00 5 10km以上 24 83 995 弱いしゅう雨
27 17:00 北北東 6 10km以上 26 74 995 弱いしゅう雨
27 16:00 4 10km以上 27 70 995 弱いしゅう雨
27 15:29 北北東 5 10km以上 27 66 995 弱いしゅう雨
27 15:00 北北東 5 10km以上 28 62 995
27 14:00 北北東 8 10km以上 28 62 995
27 13:00 北北東 7 10km以上 28 62 996
RJAH 290300Z 19013KT 9999 FEW015 BKN025 FEW030CB 31/24 Q1002
RJAH 290200Z 20010KT 9999 FEW015 BKN025 FEW030CB 30/24 Q1002
RJAH 290136Z 19011KT 170V230 9999 FEW012 BKN020 FEW030CB 30/26 Q1002 RMK 1CU012 5CU020 1CB030 A2961 CB 20KM NW MOV N
RJAH 290100Z 22007KT 180V240 9999 -SHRA FEW008 BKN015 BKN030CB 27/25 Q1002
RJAH 290000Z 21005KT 9999 -SHRA FEW008 BKN015 FEW030CB BKN250 26/25 Q1003
RJAH 282339Z 20005KT 160V230 9999 -SHRA FEW008 BKN015 SCT030CB BKN250 26/24 Q1003 RMK 1ST008 5CU015 3CB030 A2962 CB 10KM N MOV N
RJAH 282325Z 22010KT 2000 +SHRA BR FEW008 BKN015 BKN030CB 27/25 Q1003 RMK 2ST008 6CU015 7CB030 A2963 VIS S-W 1500M CB OHD MOV N RI++
RJAH 282305Z 20007KT 170V240 9999 -SHRA FEW008 BKN015 SCT030TCU 28/24 Q1003 RMK 2ST008 6CU015 3TCU030 A2962 TCU OHD MOV N
RJAH 282300Z 19007KT 9999 FEW008 BKN015 FEW030TCU 27/25 Q1003
RJAH 282217Z 20007KT 8000 SCT006 BKN015 27/25 Q1003 RMK 3ST006 5CU015 A2963
RJAH 282200Z 20005KT 170V230 6000 SCT006 BKN015 26/24 Q1003
RJAH 282129Z 20004KT 160V230 5000 BR FEW006 BKN015 BKN025 26/25 Q1003 RMK 2ST006 6CU015 5CU025 A2962
RJAH 282100Z VRB01KT 4000 BR FEW010 BKN015 25/24 Q1002
RJAH 282045Z VRB01KT 4000 BR FEW010 BKN015 24/23 Q1002 RMK 2ST010 7CU015 A2961 VIS S-SW 5KM
RJAH 282018Z 33001KT 3000 BR SCT008 BKN015 24/23 Q1002 RMK 3ST008 7CU015 A2960
RJAH 282000Z 36001KT 3000 BR FEW006 BKN008 BKN020 24/23 Q1002
RJAH 281912Z 31002KT 4000 BR FEW006 BKN008 BKN015 24/23 Q1002 RMK 1ST006 5ST008 7CU015 A2960 VIS S-SW 3000M
RJAH 281900Z VRB02KT 5000 BR FEW006 BKN008 BKN015 24/23 Q1002
RJAH 281800Z 02003KT 330V060 5000 BR FEW006 BKN008 BKN015 23/22 Q1001
RJAH 281700Z 02003KT 5000 -SHRA BR FEW008 BKN015 23/22 Q1001
RJAH 281645Z 02003KT 7000 -SHRA FEW012 BKN015 23/22 Q1001 RMK 1CU012 7CU015 A2959
RJAH 281600Z 08003KT 050V110 8000 FEW015 BKN020 23/22 Q1001
RJAH 281500Z VRB01KT 8000 FEW020 SCT070 23/21 Q1002
RJAH 281400Z 36003KT 9999 FEW015 SCT080 23/22 Q1002
RJAH 281300Z 01002KT 9999 -SHRA FEW010 BKN015 BKN100 23/22 Q1002
RJAH 281200Z 01004KT 340V060 9999 -SHRA FEW010 BKN015 24/22 Q1002
RJAH 281129Z 04006KT 9999 -SHRA FEW010 BKN015 24/22 Q1002 RMK 1CU010 7CU015 A2960
RJAH 281120Z 03005KT 360V070 9999 FEW010 BKN015 24/22 Q1002 RMK 1CU010 7CU015 A2960
RJAH 281100Z 05005KT 020V090 9999 -SHRA FEW010 BKN015 24/22 Q1001
RJAH 281010Z 03009KT 9999 -SHRA FEW010 BKN015 BKN040 24/21 Q1001 RMK 1CU010 6CU015 7SC040 A2958 LIGHTNING NE
RJAH 281000Z 01008KT 280V040 9999 SCT015 FEW030CB BKN040 24/21 Q1001
RJAH 280900Z 16009KT 140V200 9999 FEW025 FEW030TCU BKN040 BKN250 27/23 Q1000
RJAH 280842Z 17010KT 9999 SCT025 FEW030TCU BKN040 BKN250 28/23 Q1000 RMK 3CU025 1TCU030 5SC040 A2953 TCU 15KM NW MOV N
RJAH 280814Z 16011KT 9999 -SHRA SCT025 SCT040 BKN250 28/23 Q0999 RMK 4CU025 3SC040 A2952
RJAH 280800Z 17013KT 9999 SCT025 BKN250 28/23 Q0999
RJAH 280700Z 17012KT 140V200 9999 FEW020 SCT100 BKN250 30/24 Q0998
RJAH 280646Z 17012KT 9999 FEW020 SCT100 BKN250 30/23 Q0998 RMK 1CU020 3AC100 A2949
RJAH 280600Z 18012KT 9999 FEW020 FEW025CB BKN100 BKN250 30/23 Q0999
RJAH 280500Z 16011KT 9999 FEW020 SCT025 BKN100 31/24 Q0999
RJAH 280400Z 17010KT 9999 FEW020 BKN025 FEW030CB BKN250 31/25 Q0999
RJAH 280347Z 19009KT 160V220 9999 FEW020 BKN025 SCT030CB BKN250 31/24 Q0999 RMK 1CU020 6CU025 3CB030 A2951 CB 5KM S MOV NE
RJAH 280305Z 17008KT 130V210 9999 -SHRA FEW020 BKN025 SCT030CB BKN250 30/24 Q0999 RMK 1CU020 6CU025 3CB030 A2951 CB OHD MOV NE
RJAH 280300Z 17006KT 110V230 9999 FEW020 BKN025 FEW030CB BKN250 31/24 Q0999
RJAH 280200Z 18006KT 150V250 9999 FEW015 BKN020 FEW025CB BKN250 30/24 Q1000
RJAH 280100Z 19005KT 140V250 9999 FEW015 BKN020 29/23 Q1000
RJAH 280039Z 18007KT 140V220 9999 FEW015 BKN020 29/24 Q1000 RMK 1CU015 5CU020 A2955
RJAH 280000Z 23006KT 200V270 9999 FEW012 BKN015 29/24 Q1000
RJAH 272300Z 22005KT 180V270 9999 FEW012 27/23 Q0999
RJAH 272200Z 27003KT 230V300 9999 FEW012 25/22 Q0999
RJAH 272100Z VRB01KT 9999 FEW025 23/21 Q0999
RJAH 272000Z VRB02KT 9999 FEW030 22/21 Q0999
RJAH 271900Z 18003KT 9999 FEW030 SCT080 23/21 Q0999
RJAH 271800Z 20004KT 180V240 9999 FEW030 BKN080 22/21 Q0998
RJAH 271700Z 20005KT 9999 FEW030 BKN100 23/21 Q0998
RJAH 271600Z 23004KT 9999 FEW030 BKN100 23/20 Q0998
RJAH 271532Z 24004KT 9999 FEW030 BKN100 BKN/// 22/21 Q0998 RMK 1CU030 5AC100 A2949
RJAH 271500Z 29004KT 260V320 9999 FEW030 SCT080 BKN/// 23/20 Q0998
RJAH 271400Z 29004KT 9999 FEW030 BKN080 BKN/// 24/20 Q0997
RJAH 271300Z 28004KT 240V310 9999 FEW030 SCT060 BKN080 24/21 Q0997
RJAH 271200Z 31005KT 270V350 9999 -SHRA FEW008 BKN030 24/22 Q0997
RJAH 271119Z 30003KT 9999 -SHRA FEW008 BKN030 24/22 Q0996 RMK 1ST008 7CU030 A2944 VIS NW-NE 5KM
RJAH 271100Z 33004KT 270V360 9999 FEW008 BKN040 25/21 Q0996
RJAH 271047Z 34004KT 9999 FEW008 BKN030 25/21 Q0996 RMK 1ST008 7CU030 A2942
RJAH 271000Z 29003KT 9999 -SHRA FEW008 BKN030 24/22 Q0996
RJAH 270900Z 01010KT 330V070 9999 -SHRA FEW008 BKN030 24/21 Q0995
RJAH 270800Z 03011KT 9999 -SHRA FEW020 BKN035 BKN070 26/21 Q0995
RJAH 270700Z 36007KT 9999 -SHRA FEW020 BKN035 BKN060 27/21 Q0995
RJAH 270629Z 03010KT 9999 -SHRA FEW020 BKN035 BKN060 27/20 Q0995 RMK 1CU020 6CU035 6SC060 A2940
RJAH 270600Z 03010KT 9999 FEW020 BKN035 BKN060 28/20 Q0995
RJAH 270500Z 03015KT 9999 FEW020 BKN035 BKN060 28/20 Q0995
RJAH 270400Z 02014KT 9999 FEW020 BKN035 28/20 Q0996